Terminal Aerodrome Forecast
Issued by NWS

Home | Current Version | Previous Version | Text Only | Print | Product List | Glossary On
Versions: 1 2 3 4 5 6 7 8 9 10 11 12 13 14 15 16 17 18 19 20 21 22
000
FTUS41 KALY 261740
TAFPSF
TAF
KPSF 261740Z 2618/2718 28008KT P6SM VCSH BKN008 OVC012
      TEMPO 2618/2622 4SM -RA BR OVC006
     FM270000 30010G20KT P6SM SCT008 OVC015
     FM270400 31006KT P6SM OVC015
     FM270900 32005KT P6SM SCT003 OVC010
     FM271300 32005KT P6SM BKN010 OVC020
     FM271600 32006KT P6SM SCT020 OVC030=

USA.gov is the U.S. government's official web portal to all federal, state and local government web resources and services.